Time;durP1;ratioP1;P1;durP2;ratioP2;P2;SDS_P1;SDS_P2;PMS_P1;PMS_P2;Temp;Humidity;BMP_temperature;BMP_pressure;BME280_temperature;BME280_humidity;BME280_pressure;Samples;Min_cycle;Max_cycle;Signal;HPM_P1;HPM_P2
2022/01/27 00:01:01;;;;;;;56.38;28.92;;;;;;;3.41;85.31;102752.38;5003229;28;20045;-60
2022/01/27 00:03:29;;;;;;;52.63;28.45;;;;;;;3.34;85.58;102741.19;4999619;28;20553;-60
2022/01/27 00:05:59;;;;;;;53.47;29.08;;;;;;;3.32;85.95;102736.91;5006905;28;20101;-60
2022/01/27 00:08:32;;;;;;;54.47;28.98;;;;;;;3.32;85.70;102715.16;5024722;28;20104;-60
2022/01/27 00:11:00;;;;;;;53.25;29.33;;;;;;;3.31;85.81;102706.16;5010908;28;20132;-60
2022/01/27 00:13:32;;;;;;;56.60;29.13;;;;;;;3.38;85.75;102714.63;5004177;28;20048;-60
2022/01/27 00:16:12;;;;;;;52.83;29.08;;;;;;;3.37;85.28;102700.19;4998952;28;20200;-60
2022/01/27 00:18:38;;;;;;;53.67;29.63;;;;;;;3.37;85.40;102688.47;5004455;28;20025;-60
2022/01/27 00:21:03;;;;;;;53.95;29.65;;;;;;;3.38;85.23;102693.75;5004754;28;20429;-60
2022/01/27 00:23:30;;;;;;;56.15;29.27;;;;;;;3.33;85.76;102698.72;5002175;28;20026;-60
2022/01/27 00:25:55;;;;;;;50.70;29.15;;;;;;;3.39;85.66;102702.75;4996740;28;20480;-60
2022/01/27 00:28:20;;;;;;;54.42;28.48;;;;;;;3.35;85.50;102714.91;4995057;28;20024;-60
2022/01/27 00:30:46;;;;;;;52.97;29.38;;;;;;;3.38;85.00;102715.47;4995626;28;20037;-60
2022/01/27 00:33:11;;;;;;;50.10;26.98;;;;;;;3.37;85.26;102713.75;4998279;28;20459;-60
2022/01/27 00:35:36;;;;;;;52.35;28.10;;;;;;;3.42;85.49;102701.63;4996261;28;20026;-60
2022/01/27 00:38:02;;;;;;;52.00;28.52;;;;;;;3.37;85.52;102693.88;4989047;28;20030;-60
2022/01/27 00:40:28;;;;;;;51.38;29.17;;;;;;;3.37;85.47;102691.19;4998522;28;20754;-60
2022/01/27 00:42:53;;;;;;;53.90;28.73;;;;;;;3.35;85.46;102683.19;4995327;28;20017;-60
2022/01/27 00:45:19;;;;;;;54.80;28.80;;;;;;;3.34;85.84;102678.72;4993389;28;20026;-60
2022/01/27 00:47:45;;;;;;;51.95;29.42;;;;;;;3.43;84.99;102684.31;4993493;28;20037;-60
2022/01/27 00:50:10;;;;;;;55.20;27.38;;;;;;;3.36;85.67;102684.88;4986233;28;20028;-60
2022/01/27 00:52:43;;;;;;;56.20;30.23;;;;;;;3.41;85.03;102692.63;4990155;28;20073;-60
2022/01/27 00:55:11;;;;;;;53.72;27.83;;;;;;;3.37;85.78;102693.88;4993295;28;20025;-60
2022/01/27 01:00:28;;;;;;;54.47;28.83;;;;;;;3.42;85.42;102679.91;4992275;28;20108;-60
2022/01/27 01:03:00;;;;;;;49.50;26.30;;;;;;;3.42;85.24;102672.59;4998807;28;20046;-60
2022/01/27 01:07:56;;;;;;;50.33;27.38;;;;;;;3.39;85.43;102664.72;4997461;28;20034;-60
2022/01/27 01:15:36;;;;;;;51.90;25.98;;;;;;;3.40;85.58;102655.59;4998893;28;20046;-60
2022/01/27 01:20:54;;;;;;;48.38;24.38;;;;;;;3.45;85.58;102652.44;4987981;28;20137;-60
2022/01/27 01:31:53;;;;;;;50.22;28.15;;;;;;;3.45;85.49;102656.03;4988154;28;20062;-60
2022/01/27 01:34:22;;;;;;;50.75;27.55;;;;;;;3.45;85.92;102633.44;4988540;28;20030;-60
2022/01/27 01:37:03;;;;;;;50.88;27.88;;;;;;;3.49;85.32;102619.44;4998949;28;20097;-60
2022/01/27 01:39:33;;;;;;;50.03;26.40;;;;;;;3.51;85.19;102606.59;4994034;28;20034;-60
2022/01/27 01:42:00;;;;;;;50.10;26.95;;;;;;;3.58;84.98;102613.16;4993526;28;20370;-60
2022/01/27 01:44:25;;;;;;;51.85;27.17;;;;;;;3.52;85.32;102619.16;4997679;28;20034;-60
2022/01/27 01:46:52;;;;;;;48.47;23.55;;;;;;;3.58;85.26;102615.88;5002801;28;20400;-60
2022/01/27 01:49:17;;;;;;;50.03;28.83;;;;;;;3.56;85.04;102619.75;4999142;28;20026;-60
2022/01/27 01:51:44;;;;;;;49.30;27.42;;;;;;;3.55;85.18;102629.75;4993949;28;20034;-61
2022/01/27 01:54:10;;;;;;;53.83;27.38;;;;;;;3.54;85.30;102621.72;4993859;28;20109;-61
2022/01/27 01:56:37;;;;;;;44.13;25.40;;;;;;;3.62;85.06;102624.59;4997470;28;20030;-60
2022/01/27 01:59:05;;;;;;;48.25;26.48;;;;;;;3.61;85.08;102612.88;4985759;28;20061;-60
2022/01/27 02:01:32;;;;;;;49.60;26.92;;;;;;;3.68;84.70;102613.16;4987312;28;20034;-60
2022/01/27 02:04:01;;;;;;;56.97;27.45;;;;;;;3.65;85.08;102605.31;4998690;28;20492;-60
2022/01/27 02:06:33;;;;;;;46.17;27.30;;;;;;;3.73;84.39;102608.16;5001388;28;20520;-60
2022/01/27 02:19:39;;;;;;;46.67;24.92;;;;;;;3.72;84.63;102581.13;4995106;28;20515;-60
2022/01/27 02:22:06;;;;;;;48.05;25.13;;;;;;;3.78;83.78;102581.41;4999910;28;20023;-60
2022/01/27 02:24:33;;;;;;;49.35;25.52;;;;;;;3.76;84.21;102579.84;5000933;28;20025;-60
2022/01/27 02:27:00;;;;;;;47.35;27.63;;;;;;;3.73;84.49;102574.69;5006255;28;20041;-60
2022/01/27 02:29:26;;;;;;;47.97;26.15;;;;;;;3.73;84.41;102571.97;5003867;28;20025;-60
2022/01/27 02:31:54;;;;;;;48.95;26.90;;;;;;;3.76;84.35;102583.44;5006364;28;20022;-60
2022/01/27 02:34:21;;;;;;;47.40;27.77;;;;;;;3.67;85.03;102575.28;5006315;28;20030;-60
2022/01/27 02:36:46;;;;;;;48.78;27.60;;;;;;;3.72;84.38;102576.56;5006073;28;20029;-61
2022/01/27 02:39:14;;;;;;;45.53;26.45;;;;;;;3.71;84.67;102568.56;5006147;28;20519;-60
2022/01/27 02:42:06;;;;;;;46.15;26.50;;;;;;;3.72;84.81;102564.84;5006134;28;20091;-60
2022/01/27 02:44:31;;;;;;;48.72;25.90;;;;;;;3.72;84.63;102564.84;5004104;28;20038;-60
2022/01/27 02:46:56;;;;;;;47.93;26.60;;;;;;;3.69;84.77;102567.81;5005545;28;20030;-60
2022/01/27 02:49:22;;;;;;;44.58;25.98;;;;;;;3.72;84.81;102543.94;5005798;28;20038;-60
2022/01/27 02:51:47;;;;;;;50.50;26.90;;;;;;;3.76;85.06;102539.94;5005725;28;20033;-60
2022/01/27 02:54:12;;;;;;;44.42;24.58;;;;;;;3.71;85.32;102523.22;5005717;28;20026;-60
2022/01/27 02:56:43;;;;;;;47.25;26.40;;;;;;;3.70;85.12;102526.94;5006344;28;20113;-60
2022/01/27 02:59:09;;;;;;;47.90;25.38;;;;;;;3.74;84.93;102517.47;5004454;28;20054;-60
2022/01/27 03:01:35;;;;;;;45.60;23.35;;;;;;;3.68;85.54;102519.94;5005421;28;20041;-60
2022/01/27 03:04:00;;;;;;;46.83;25.63;;;;;;;3.63;86.05;102537.50;5004274;23;20059;-60
2022/01/27 03:06:25;;;;;;;46.05;25.60;;;;;;;3.72;85.67;102537.66;5021820;28;20030;-60
2022/01/27 03:08:50;;;;;;;45.70;23.80;;;;;;;3.75;85.50;102523.75;5013954;28;20022;-60
2022/01/27 03:11:22;;;;;;;49.60;26.63;;;;;;;3.79;85.76;102527.91;5005706;28;20025;-60
2022/01/27 03:13:48;;;;;;;47.08;23.98;;;;;;;3.81;85.03;102513.19;5004181;28;20040;-60
2022/01/27 03:16:13;;;;;;;45.80;25.83;;;;;;;3.77;85.18;102498.19;5005306;28;20105;-60
2022/01/27 03:18:38;;;;;;;43.55;23.40;;;;;;;3.72;85.68;102515.91;5005242;28;20030;-60
2022/01/27 03:21:05;;;;;;;45.00;24.58;;;;;;;3.70;85.73;102523.34;5005448;28;20034;-60
2022/01/27 03:23:30;;;;;;;44.95;24.30;;;;;;;3.64;86.59;102513.91;5005358;28;20404;-61
2022/01/27 03:25:55;;;;;;;47.47;24.67;;;;;;;3.66;86.25;102503.78;5004674;28;20017;-60
2022/01/27 03:28:25;;;;;;;47.42;23.33;;;;;;;3.63;86.63;102510.34;5004693;28;20022;-60
2022/01/27 03:30:50;;;;;;;47.60;23.35;;;;;;;3.69;86.02;102505.34;5003340;28;20034;-60
2022/01/27 03:33:15;;;;;;;44.88;25.58;;;;;;;3.64;86.70;102497.59;5004663;28;20022;-60
2022/01/27 03:35:40;;;;;;;46.53;25.55;;;;;;;3.66;86.12;102506.50;5005305;28;20660;-60
2022/01/27 03:38:05;;;;;;;44.55;23.55;;;;;;;3.76;86.28;102490.19;5004981;28;20026;-60
2022/01/27 03:40:31;;;;;;;43.20;23.70;;;;;;;3.70;86.05;102488.91;5004531;28;20110;-60
2022/01/27 03:43:05;;;;;;;47.53;24.98;;;;;;;3.71;86.55;102496.03;5004938;28;20026;-60
2022/01/27 03:45:30;;;;;;;43.17;24.23;;;;;;;3.73;86.33;102501.31;5004011;28;20037;-61
2022/01/27 03:47:56;;;;;;;45.42;23.88;;;;;;;3.79;85.83;102489.88;5004636;28;20436;-60
2022/01/27 03:50:21;;;;;;;47.05;22.88;;;;;;;3.75;86.58;102489.31;5004945;28;20022;-60
2022/01/27 03:52:46;;;;;;;43.65;22.02;;;;;;;3.77;86.05;102489.16;5003473;28;20117;-61
2022/01/27 03:55:12;;;;;;;43.50;23.88;;;;;;;3.73;86.62;102476.88;4993385;28;20026;-60
2022/01/27 03:57:37;;;;;;;44.97;24.00;;;;;;;3.68;86.82;102469.16;5004981;28;20645;-60
2022/01/27 04:00:05;;;;;;;42.25;22.63;;;;;;;3.66;87.39;102462.16;5003490;28;20040;-60
2022/01/27 04:02:30;;;;;;;43.85;23.35;;;;;;;3.69;86.42;102448.28;5003882;28;20036;-60
2022/01/27 04:04:55;;;;;;;48.60;24.70;;;;;;;3.62;87.12;102450.72;5003878;28;20050;-60
2022/01/27 04:07:21;;;;;;;45.28;25.52;;;;;;;3.63;87.16;102456.00;5004840;28;20595;-60
2022/01/27 04:09:46;;;;;;;49.97;23.63;;;;;;;3.60;87.62;102456.31;5003818;28;20478;-61
2022/01/27 04:12:11;;;;;;;47.83;23.27;;;;;;;3.58;87.74;102452.88;5004513;28;20168;-60
2022/01/27 04:14:37;;;;;;;45.92;23.00;;;;;;;3.59;87.60;102449.13;5003661;28;20033;-60
2022/01/27 04:17:02;;;;;;;39.83;20.60;;;;;;;3.55;87.77;102438.75;5004489;28;20026;-61
2022/01/27 04:19:28;;;;;;;44.90;24.27;;;;;;;3.62;87.38;102423.56;5003863;28;20816;-60
2022/01/27 04:21:53;;;;;;;48.35;23.65;;;;;;;3.51;88.24;102432.72;5004415;28;20022;-60
2022/01/27 04:24:18;;;;;;;43.13;22.83;;;;;;;3.59;87.31;102429.28;5004393;28;20026;-61
2022/01/27 04:26:49;;;;;;;46.63;23.10;;;;;;;3.46;88.22;102426.88;5003421;28;20037;-60
2022/01/27 04:29:16;;;;;;;44.17;23.35;;;;;;;3.44;88.85;102422.56;4999269;28;20022;-60
2022/01/27 04:31:44;;;;;;;49.10;23.75;;;;;;;3.44;88.54;102414.44;5003911;28;20388;-61
2022/01/27 04:34:09;;;;;;;44.47;23.67;;;;;;;3.50;88.25;102409.28;5003941;28;20026;-60
2022/01/27 04:36:35;;;;;;;45.45;22.85;;;;;;;3.44;89.12;102412.56;5004352;28;21106;-60
2022/01/27 04:41:42;;;;;;;43.47;20.65;;;;;;;3.36;89.57;102420.59;5003924;28;20033;-60
2022/01/27 04:46:47;;;;;;;43.78;22.30;;;;;;;3.38;89.54;102418.59;5003671;28;20049;-60
2022/01/27 04:49:13;;;;;;;43.58;22.45;;;;;;;3.33;90.12;102418.16;5003620;28;20083;-60
2022/01/27 04:51:38;;;;;;;47.60;23.58;;;;;;;3.34;90.34;102415.28;5004107;28;20049;-61
2022/01/27 04:54:28;;;;;;;49.22;24.63;;;;;;;3.34;90.30;102400.88;5003922;28;20124;-61
2022/01/27 04:56:52;;;;;;;41.55;23.23;;;;;;;3.33;90.05;102407.31;5003481;28;20042;-60
2022/01/27 04:59:26;;;;;;;47.90;23.30;;;;;;;3.33;90.27;102404.59;5002274;28;20033;-60
2022/01/27 05:01:57;;;;;;;40.88;19.80;;;;;;;3.39;90.45;102390.41;5003364;28;20109;-60
2022/01/27 05:04:29;;;;;;;39.95;20.52;;;;;;;3.47;89.49;102387.84;5003697;28;20412;-60
2022/01/27 05:06:54;;;;;;;41.55;22.10;;;;;;;3.39;90.39;102385.00;5003547;28;20021;-60
2022/01/27 05:09:19;;;;;;;50.65;24.10;;;;;;;3.53;89.42;102389.97;5003861;28;20521;-60
2022/01/27 05:11:50;;;;;;;47.15;23.98;;;;;;;3.44;89.82;102377.25;5003414;28;20026;-60
2022/01/27 05:14:19;;;;;;;42.13;23.02;;;;;;;3.51;89.92;102382.97;5002322;28;20057;-60
2022/01/27 05:16:45;;;;;;;42.22;21.52;;;;;;;3.45;90.07;102384.44;5003677;28;20045;-60
2022/01/27 05:19:10;;;;;;;42.53;21.95;;;;;;;3.47;90.13;102376.13;5003959;28;20018;-60
2022/01/27 05:21:36;;;;;;;46.97;22.17;;;;;;;3.52;89.94;102362.97;5004241;28;20101;-60
2022/01/27 05:24:03;;;;;;;44.00;21.75;;;;;;;3.66;89.61;102367.06;5003492;28;20058;-60
2022/01/27 05:26:29;;;;;;;46.23;24.17;;;;;;;3.67;89.93;102356.06;5002911;28;20046;-60
2022/01/27 05:28:55;;;;;;;45.03;21.75;;;;;;;3.73;89.92;102355.44;5001718;28;20284;-60
2022/01/27 05:31:20;;;;;;;41.75;21.65;;;;;;;3.86;89.18;102355.13;5003924;28;20040;-60
2022/01/27 05:33:45;;;;;;;45.85;22.70;;;;;;;3.87;89.34;102348.69;4996967;28;20477;-60
2022/01/27 05:36:11;;;;;;;42.33;22.50;;;;;;;3.95;88.72;102354.19;4982592;28;20038;-60
2022/01/27 05:38:37;;;;;;;41.15;22.13;;;;;;;3.96;89.21;102344.22;5003577;28;20033;-60
2022/01/27 05:41:04;;;;;;;43.15;21.27;;;;;;;3.98;89.01;102332.16;5003151;28;20582;-60
2022/01/27 05:43:29;;;;;;;40.42;20.17;;;;;;;4.05;88.76;102344.13;5002276;28;20034;-60
2022/01/27 05:45:54;;;;;;;40.78;21.50;;;;;;;4.04;88.85;102350.59;5002174;28;20026;-60
2022/01/27 05:48:20;;;;;;;41.25;21.02;;;;;;;4.07;89.03;102353.00;5003910;28;20540;-60
2022/01/27 05:50:45;;;;;;;47.13;22.42;;;;;;;4.13;88.43;102341.53;5003028;28;20022;-61
2022/01/27 05:53:10;;;;;;;42.63;23.33;;;;;;;4.11;88.76;102356.28;5003352;28;20117;-60
2022/01/27 05:55:36;;;;;;;41.67;21.63;;;;;;;4.15;88.46;102355.81;5007138;28;20057;-60
2022/01/27 05:58:01;;;;;;;38.58;20.45;;;;;;;4.26;88.13;102353.88;5005889;28;20068;-60
2022/01/27 06:00:27;;;;;;;41.85;20.75;;;;;;;4.19;88.26;102339.19;5006426;28;20030;-60
2022/01/27 06:02:53;;;;;;;41.90;20.33;;;;;;;4.21;88.79;102346.22;5006645;28;20382;-60
2022/01/27 06:05:19;;;;;;;38.53;20.98;;;;;;;4.16;89.40;102329.50;5007624;28;20022;-62
2022/01/27 06:07:44;;;;;;;39.50;21.52;;;;;;;4.18;89.61;102327.47;5006605;28;20599;-62
2022/01/27 06:10:09;;;;;;;41.38;21.10;;;;;;;4.28;89.76;102327.41;5007000;28;20030;-62
2022/01/27 06:12:44;;;;;;;37.78;17.85;;;;;;;4.28;89.40;102335.56;5006935;28;20439;-60
2022/01/27 06:15:09;;;;;;;47.92;22.17;;;;;;;4.22;90.01;102336.19;5010877;28;20025;-60
2022/01/27 06:17:34;;;;;;;45.90;22.38;;;;;;;4.28;89.68;102331.00;5027039;28;20654;-60
2022/01/27 06:20:02;;;;;;;42.17;22.35;;;;;;;4.13;91.10;102324.34;5026056;28;20140;-60
2022/01/27 06:22:27;;;;;;;43.77;22.00;;;;;;;4.26;90.40;102323.97;5011701;28;20677;-60
2022/01/27 06:24:52;;;;;;;41.40;20.80;;;;;;;4.16;90.84;102329.50;5006210;28;20049;-62
2022/01/27 06:27:18;;;;;;;43.20;20.85;;;;;;;4.14;91.62;102324.19;5004814;28;20062;-61
2022/01/27 06:29:43;;;;;;;45.40;22.35;;;;;;;4.19;91.11;102322.88;5004802;28;20026;-61
2022/01/27 06:32:08;;;;;;;43.53;22.38;;;;;;;4.15;91.48;102312.31;5006260;28;20030;-61
2022/01/27 06:34:34;;;;;;;45.22;22.17;;;;;;;4.21;91.05;102315.41;5007052;28;20073;-61
2022/01/27 06:36:59;;;;;;;43.80;22.27;;;;;;;4.16;91.52;102314.03;5006058;28;20026;-60
2022/01/27 06:39:24;;;;;;;42.13;22.38;;;;;;;4.25;90.96;102306.81;5005858;28;20014;-61
2022/01/27 06:41:50;;;;;;;37.08;20.33;;;;;;;4.23;91.51;102310.69;5004779;28;20022;-61
2022/01/27 06:44:15;;;;;;;45.33;21.02;;;;;;;4.20;91.31;102300.97;5004402;28;20033;-61
2022/01/27 06:46:41;;;;;;;45.42;22.33;;;;;;;4.20;91.44;102298.25;5004662;28;20744;-61
2022/01/27 06:49:07;;;;;;;43.92;22.70;;;;;;;4.23;91.53;102307.97;5006354;28;20029;-61
2022/01/27 06:51:32;;;;;;;46.58;22.15;;;;;;;4.22;91.56;102306.28;5005762;28;20022;-61
2022/01/27 06:53:58;;;;;;;47.63;22.08;;;;;;;4.26;91.56;102302.22;5004988;28;20542;-61
2022/01/27 06:56:25;;;;;;;46.33;23.15;;;;;;;4.22;91.72;102301.69;5005950;28;20021;-61
2022/01/27 06:58:50;;;;;;;36.72;18.38;;;;;;;4.29;91.50;102293.75;4999971;28;20033;-61
2022/01/27 07:01:16;;;;;;;41.22;21.80;;;;;;;4.34;91.60;102310.47;5006032;28;20022;-61
2022/01/27 07:03:41;;;;;;;46.95;23.60;;;;;;;4.25;91.84;102300.50;5015745;28;20049;-61
2022/01/27 07:06:06;;;;;;;48.88;23.02;;;;;;;4.29;91.59;102291.03;5011629;28;20113;-61
2022/01/27 07:08:31;;;;;;;45.92;22.77;;;;;;;4.35;91.70;102299.44;5005652;28;20329;-61
2022/01/27 07:10:57;;;;;;;48.08;23.95;;;;;;;4.33;92.07;102297.88;5005196;28;20025;-61
2022/01/27 07:13:22;;;;;;;40.30;19.33;;;;;;;4.43;91.18;102294.09;5004784;28;20030;-61
2022/01/27 07:15:47;;;;;;;44.17;22.58;;;;;;;4.39;92.07;102300.00;5005139;28;20040;-61
2022/01/27 07:18:13;;;;;;;46.03;20.63;;;;;;;4.57;90.88;102302.72;5005336;28;20034;-60
2022/01/27 07:20:38;;;;;;;49.67;24.27;;;;;;;4.46;91.52;102306.53;5005410;28;20057;-61
2022/01/27 07:23:07;;;;;;;46.00;22.70;;;;;;;4.45;91.65;102310.25;5005606;28;20026;-61
2022/01/27 07:25:32;;;;;;;;;;;;;;;4.67;90.54;102317.09;5006042;28;20060;-61
2022/01/27 07:27:57;;;;;;;49.27;22.93;;;;;;;4.48;91.41;102318.09;5003875;28;19968;-61
2022/01/27 07:30:22;;;;;;;38.05;20.77;;;;;;;4.69;90.64;102325.97;5004859;28;20088;-61
2022/01/27 07:32:48;;;;;;;42.92;22.08;;;;;;;4.69;90.16;102313.22;5005260;28;20033;-61
2022/01/27 07:35:13;;;;;;;46.63;22.95;;;;;;;4.53;91.43;102321.22;5004276;28;20021;-61
2022/01/27 07:37:41;;;;;;;43.30;22.00;;;;;;;4.62;91.03;102327.59;5005126;28;20090;-61
2022/01/27 07:40:07;;;;;;;45.00;23.75;;;;;;;4.56;91.52;102315.47;5004652;28;20041;-61
2022/01/27 07:42:32;;;;;;;37.45;18.15;;;;;;;4.61;91.89;102318.59;5004034;28;20448;-61
2022/01/27 07:44:57;;;;;;;41.90;21.48;;;;;;;4.65;91.89;102317.25;5004179;28;20053;-61
2022/01/27 07:47:23;;;;;;;48.35;24.52;;;;;;;4.53;93.12;102314.94;5004770;28;20503;-61
2022/01/27 07:49:48;;;;;;;52.67;25.58;;;;;;;4.50;93.91;102317.94;5004514;28;20026;-62
2022/01/27 07:52:13;;;;;;;53.80;26.63;;;;;;;4.46;94.90;102319.25;5004648;28;20030;-61
2022/01/27 07:54:38;;;;;;;57.83;25.33;;;;;;;4.45;95.23;102325.72;5004569;28;20499;-62
2022/01/27 07:57:04;;;;;;;53.42;25.23;;;;;;;4.38;96.01;102326.34;5005167;28;20530;-61
2022/01/27 07:59:29;;;;;;;56.88;26.02;;;;;;;4.36;96.47;102322.06;5002998;28;20503;-61
2022/01/27 08:01:55;;;;;;;43.78;21.40;;;;;;;4.43;96.03;102317.72;5004596;28;20040;-61
2022/01/27 08:04:20;;;;;;;58.22;26.52;;;;;;;4.37;96.70;102319.19;5004672;28;20113;-61
2022/01/27 08:06:45;;;;;;;49.22;22.10;;;;;;;4.43;96.63;102321.28;4999764;28;20056;-61
2022/01/27 08:09:10;;;;;;;51.22;22.65;;;;;;;4.38;97.03;102323.63;5003405;28;20053;-61
2022/01/27 08:11:36;;;;;;;56.97;27.00;;;;;;;4.31;97.94;102318.94;5005275;28;20397;-61
2022/01/27 08:14:01;;;;;;;59.17;27.90;;;;;;;4.33;98.19;102314.22;5002892;28;20091;-61
2022/01/27 08:16:27;;;;;;;55.95;26.42;;;;;;;4.33;98.57;102317.78;5003898;28;20125;-61
2022/01/27 08:18:52;;;;;;;57.42;26.88;;;;;;;4.39;98.41;102319.03;5004225;28;20062;-61
2022/01/27 08:21:17;;;;;;;59.03;27.70;;;;;;;4.34;98.82;102313.19;5003257;28;20045;-61
2022/01/27 08:23:43;;;;;;;56.95;28.10;;;;;;;4.30;99.63;102315.34;5003750;28;20453;-61
2022/01/27 08:26:11;;;;;;;60.17;28.88;;;;;;;4.36;99.60;102317.50;5004643;28;20030;-61
2022/01/27 08:28:54;;;;;;;61.65;27.67;;;;;;;4.35;99.87;102320.34;5004247;28;20029;-62
2022/01/27 08:31:22;;;;;;;59.45;28.15;;;;;;;4.36;99.61;102311.19;5003878;28;20125;-61
2022/01/27 08:33:48;;;;;;;57.73;25.80;;;;;;;4.43;99.74;102309.56;5003138;28;20104;-62
2022/01/27 08:36:13;;;;;;;55.53;27.35;;;;;;;4.43;100.00;102309.56;5003133;28;20100;-62
2022/01/27 08:38:43;;;;;;;56.22;27.08;;;;;;;4.43;99.92;102309.56;5003862;28;20103;-62
2022/01/27 08:41:09;;;;;;;58.08;29.08;;;;;;;4.49;99.67;102308.94;5004078;28;20037;-62
2022/01/27 08:43:34;;;;;;;61.53;29.48;;;;;;;4.60;99.32;102313.28;5003701;28;20050;-62
2022/01/27 08:46:01;;;;;;;58.33;29.58;;;;;;;4.57;100.00;102316.34;5003193;28;20461;-62
2022/01/27 08:48:28;;;;;;;59.88;29.23;;;;;;;4.48;100.00;102312.66;5004241;28;20065;-62
2022/01/27 08:50:59;;;;;;;64.03;29.58;;;;;;;4.59;99.82;102320.59;5003722;28;20225;-62
2022/01/27 08:53:26;;;;;;;51.47;24.92;;;;;;;4.77;98.93;102296.09;4997968;28;20502;-62
2022/01/27 08:55:52;;;;;;;62.90;31.23;;;;;;;4.60;100.00;102308.69;4997510;28;20049;-62
2022/01/27 08:58:18;;;;;;;54.45;28.17;;;;;;;4.67;100.00;102311.66;4998069;28;20025;-62
2022/01/27 09:00:43;;;;;;;56.53;29.38;;;;;;;4.68;100.00;102310.66;5002787;28;20026;-61
2022/01/27 09:03:08;;;;;;;53.90;26.98;;;;;;;4.69;100.00;102309.63;4999885;28;20401;-62
2022/01/27 09:05:35;;;;;;;59.83;28.92;;;;;;;4.78;100.00;102307.84;5001741;28;20068;-62
2022/01/27 09:08:01;;;;;;;62.70;28.90;;;;;;;4.71;100.00;102312.19;4998919;28;20071;-62
2022/01/27 09:10:31;;;;;;;62.10;30.65;;;;;;;4.71;100.00;102307.59;5002885;28;20022;-62
2022/01/27 09:12:56;;;;;;;59.67;30.05;;;;;;;4.76;100.00;102309.84;5002195;28;20026;-62
2022/01/27 09:15:22;;;;;;;43.42;20.48;;;;;;;4.92;100.00;102304.56;5002275;28;20113;-62
2022/01/27 09:17:47;;;;;;;54.60;26.23;;;;;;;4.84;100.00;102305.34;5002485;28;20169;-62
2022/01/27 09:20:12;;;;;;;51.42;26.98;;;;;;;4.88;100.00;102303.16;5002440;28;20036;-62
2022/01/27 09:22:38;;;;;;;48.22;25.02;;;;;;;4.98;100.00;102303.06;5002800;28;20400;-62
2022/01/27 09:25:26;;;;;;;52.95;27.77;;;;;;;4.90;100.00;102306.56;5003486;28;20029;-62
2022/01/27 09:27:52;;;;;;;48.78;26.58;;;;;;;4.88;100.00;102298.56;4987090;28;20029;-61
2022/01/27 09:30:18;;;;;;;53.75;27.65;;;;;;;4.94;100.00;102297.09;4994842;28;20088;-62
2022/01/27 09:32:45;;;;;;;54.28;28.67;;;;;;;4.94;100.00;102291.63;4989610;28;20384;-61
2022/01/27 09:35:10;;;;;;;54.20;29.17;;;;;;;4.95;100.00;102293.34;4990722;28;20472;-61
2022/01/27 09:37:36;;;;;;;48.47;25.67;;;;;;;4.99;100.00;102302.06;4986869;28;20038;-61
2022/01/27 09:40:02;;;;;;;52.65;27.38;;;;;;;4.98;100.00;102295.75;4989122;28;20029;-61
2022/01/27 09:42:31;;;;;;;50.92;26.77;;;;;;;5.00;100.00;102296.44;5000503;28;20065;-62
2022/01/27 09:44:59;;;;;;;47.13;25.73;;;;;;;5.07;100.00;102302.09;4994898;28;20022;-61
2022/01/27 09:47:29;;;;;;;47.63;24.88;;;;;;;5.12;100.00;102305.19;4990703;28;20045;-61
2022/01/27 09:49:55;;;;;;;42.45;22.20;;;;;;;5.14;100.00;102304.03;4994971;28;20116;-62
2022/01/27 09:52:20;;;;;;;46.97;25.40;;;;;;;5.14;100.00;102312.22;4985535;28;20110;-61
2022/01/27 09:54:46;;;;;;;41.67;22.98;;;;;;;5.20;100.00;102310.72;4988742;28;20030;-61
2022/01/27 09:57:17;;;;;;;41.25;22.05;;;;;;;5.36;100.00;102312.69;4988823;28;20031;-62
2022/01/27 09:59:45;;;;;;;49.13;26.88;;;;;;;5.24;100.00;102319.44;4985678;28;20028;-62
2022/01/27 10:02:15;;;;;;;53.63;25.70;;;;;;;5.25;100.00;102319.25;4993220;28;20026;-61
2022/01/27 10:04:52;;;;;;;38.85;21.70;;;;;;;5.38;100.00;102307.97;4985294;28;20970;-62
2022/01/27 10:07:20;;;;;;;39.38;21.00;;;;;;;5.44;100.00;102313.59;4995999;28;20041;-62
2022/01/27 10:10:03;;;;;;;37.53;20.23;;;;;;;5.44;100.00;102313.59;4993046;28;20018;-62
2022/01/27 10:12:31;;;;;;;36.78;21.45;;;;;;;5.40;100.00;102306.78;4994728;28;20474;-62
2022/01/27 10:15:07;;;;;;;35.63;19.73;;;;;;;5.49;100.00;102307.69;4989426;28;20033;-62
2022/01/27 10:17:37;;;;;;;34.08;19.55;;;;;;;5.49;100.00;102304.94;4999375;28;20477;-62
2022/01/27 10:20:03;;;;;;;36.10;20.80;;;;;;;5.55;100.00;102307.03;5001472;28;20041;-62
2022/01/27 10:22:28;;;;;;;29.25;18.42;;;;;;;5.55;100.00;102304.31;4995700;28;20018;-62
2022/01/27 10:25:02;;;;;;;29.70;18.67;;;;;;;5.53;100.00;102300.91;4984243;28;20489;-62
2022/01/27 10:32:36;;;;;;;32.45;18.75;;;;;;;5.64;100.00;102308.78;5001202;28;20073;-62
2022/01/27 10:35:04;;;;;;;32.08;19.25;;;;;;;5.63;100.00;102315.25;4987776;28;20045;-62
2022/01/27 10:37:59;;;;;;;29.02;16.25;;;;;;;5.73;100.00;102304.25;4992285;28;20186;-62
2022/01/27 10:40:44;;;;;;;23.25;13.98;;;;;;;5.71;100.00;102311.69;4986782;28;20416;-62
2022/01/27 10:43:21;;;;;;;24.95;15.80;;;;;;;5.72;100.00;102314.25;4987384;28;20037;-62
2022/01/27 10:46:00;;;;;;;27.25;17.13;;;;;;;5.71;100.00;102320.72;4990888;28;20113;-62
2022/01/27 10:48:29;;;;;;;24.02;15.15;;;;;;;5.92;100.00;102308.59;5007745;28;20161;-62
2022/01/27 10:51:01;;;;;;;26.35;15.38;;;;;;;5.86;100.00;102309.22;4987085;28;20162;-62
2022/01/27 10:53:55;;;;;;;27.77;16.35;;;;;;;5.87;100.00;102310.91;4990283;28;20030;-62
2022/01/27 10:56:24;;;;;;;23.90;15.05;;;;;;;5.88;100.00;102307.16;4985588;28;20447;-62
2022/01/27 10:58:50;;;;;;;24.33;14.95;;;;;;;5.98;100.00;102318.84;4985320;28;20026;-62
2022/01/27 11:01:24;;;;;;;21.77;14.25;;;;;;;5.98;100.00;102324.28;4985639;28;20065;-62
2022/01/27 11:03:51;;;;;;;22.83;14.32;;;;;;;6.00;100.00;102315.97;4989438;28;20581;-62
2022/01/27 11:06:16;;;;;;;22.27;14.00;;;;;;;5.98;100.00;102303.34;4987657;28;20041;-62
2022/01/27 11:08:42;;;;;;;24.08;15.55;;;;;;;6.05;100.00;102309.00;4979378;28;20041;-62
2022/01/27 11:11:08;;;;;;;24.15;15.13;;;;;;;6.09;100.00;102302.19;4986121;28;20037;-62
2022/01/27 11:13:35;;;;;;;27.98;18.38;;;;;;;6.09;100.00;102304.91;4982260;28;20384;-62
2022/01/27 11:16:03;;;;;;;24.17;16.02;;;;;;;6.23;100.00;102289.75;4983581;28;20026;-62
2022/01/27 11:18:29;;;;;;;25.10;15.45;;;;;;;6.18;100.00;102287.56;4992170;28;20088;-62
2022/01/27 11:21:08;;;;;;;28.40;18.17;;;;;;;6.21;100.00;102283.63;4987958;28;20156;-62
2022/01/27 11:26:07;;;;;;;29.08;16.77;;;;;;;6.34;100.00;102285.91;4984863;28;20050;-62
2022/01/27 11:28:33;;;;;;;29.20;17.20;;;;;;;6.37;100.00;102270.00;4984341;28;20126;-62
2022/01/27 11:31:57;;;;;;;31.75;16.60;;;;;;;6.44;100.00;102272.94;4996502;28;20101;-62
2022/01/27 11:34:42;;;;;;;29.33;17.38;;;;;;;6.36;100.00;102267.47;4906775;29;20063;-62
2022/01/27 11:37:07;;;;;;;31.00;17.40;;;;;;;6.39;100.00;102267.13;4905322;29;20043;-62
2022/01/27 11:39:55;;;;;;;23.00;16.33;;;;;;;6.47;100.00;102264.41;4978877;28;20045;-62
2022/01/27 11:42:42;;;;;;;30.02;15.38;;;;;;;6.44;100.00;102262.03;5003487;28;20034;-62
2022/01/27 11:45:22;;;;;;;27.65;16.00;;;;;;;6.44;100.00;102256.56;5002713;28;20062;-62
2022/01/27 11:47:57;;;;;;;24.50;16.02;;;;;;;6.46;100.00;102258.09;4993213;28;20124;-62
2022/01/27 11:50:35;;;;;;;26.35;15.25;;;;;;;6.47;100.00;102246.16;5003803;28;20033;-62
2022/01/27 11:53:03;;;;;;;32.28;16.65;;;;;;;6.46;100.00;102243.59;5002954;28;20040;-62
2022/01/27 11:55:29;;;;;;;30.58;16.17;;;;;;;6.54;100.00;102253.66;4996481;28;20169;-62
2022/01/27 11:58:17;;;;;;;28.48;14.00;;;;;;;6.54;100.00;102250.91;4978496;28;20054;-62
2022/01/27 12:01:10;;;;;;;26.52;16.55;;;;;;;6.50;100.00;102248.56;4979611;28;20033;-62
2022/01/27 12:03:37;;;;;;;26.73;16.20;;;;;;;6.50;100.00;102250.44;4981741;28;20148;-62